Time;durP1;ratioP1;P1;durP2;ratioP2;P2;SDS_P1;SDS_P2;PMS_P1;PMS_P2;Temp;Humidity;BMP_temperature;BMP_pressure;BME280_temperature;BME280_humidity;BME280_pressure;Samples;Min_cycle;Max_cycle;Signal;HPM_P1;HPM_P2
2023/01/20 00:01:11;;;;;;;15.52;13.85;;;;;;;0.09;100.00;100758.66;10137663;28;20074;-71
2023/01/20 00:06:08;;;;;;;16.45;13.65;;;;;;;0.13;100.00;100753.59;10163720;28;20054;-71
2023/01/20 00:11:06;;;;;;;14.82;13.50;;;;;;;0.04;100.00;100763.97;10124883;28;20043;-71
2023/01/20 00:16:09;;;;;;;15.13;13.68;;;;;;;0.07;100.00;100760.81;10162442;28;20045;-71
2023/01/20 00:21:08;;;;;;;18.65;14.50;;;;;;;0.05;100.00;100757.53;10131100;28;20042;-71
2023/01/20 00:26:13;;;;;;;14.63;13.43;;;;;;;0.05;100.00;100768.28;10150604;28;20125;-71
2023/01/20 00:31:11;;;;;;;15.68;14.27;;;;;;;0.02;100.00;100774.13;10114080;28;20051;-71
2023/01/20 00:36:08;;;;;;;13.85;12.63;;;;;;;0.03;100.00;100778.47;10155234;28;20477;-71
2023/01/20 00:41:05;;;;;;;14.30;13.15;;;;;;;0.00;100.00;100781.66;10115087;28;20507;-71
2023/01/20 00:46:03;;;;;;;15.13;13.85;;;;;;;-0.06;100.00;100782.63;10147998;28;20481;-71
2023/01/20 00:51:00;;;;;;;17.25;15.32;;;;;;;-0.09;100.00;100799.25;10121499;28;20051;-71
2023/01/20 00:55:57;;;;;;;24.02;15.50;;;;;;;-0.11;100.00;100804.06;10139522;28;20047;-71
2023/01/20 01:00:54;;;;;;;16.60;15.20;;;;;;;-0.17;100.00;100805.03;10121585;28;20051;-71
2023/01/20 01:05:51;;;;;;;20.05;18.10;;;;;;;-0.20;100.00;100819.78;10141432;28;20126;-71
2023/01/20 01:10:47;;;;;;;19.75;17.55;;;;;;;-0.24;100.00;100824.81;10121510;28;20428;-71
2023/01/20 01:15:48;;;;;;;22.17;20.05;;;;;;;-0.24;100.00;100827.50;10164087;28;20073;-71
2023/01/20 01:20:45;;;;;;;20.58;18.42;;;;;;;-0.24;100.00;100834.75;10200657;28;20137;-70
2023/01/20 01:25:41;;;;;;;20.20;18.33;;;;;;;-0.25;100.00;100839.31;10185968;28;20069;-71
2023/01/20 01:30:38;;;;;;;24.73;20.38;;;;;;;-0.29;100.00;100854.28;10156498;28;20129;-71
2023/01/20 01:35:34;;;;;;;24.88;21.80;;;;;;;-0.30;100.00;100858.03;10172013;28;20046;-71
2023/01/20 01:40:31;;;;;;;24.38;22.27;;;;;;;-0.34;100.00;100862.25;10187470;28;20528;-71
2023/01/20 01:45:29;;;;;;;25.13;22.80;;;;;;;-0.32;100.00;100870.91;10158007;28;20044;-71
2023/01/20 01:50:36;;;;;;;31.42;24.25;;;;;;;-0.35;100.00;100876.72;10142757;28;20046;-71
2023/01/20 01:55:35;;;;;;;27.92;25.42;;;;;;;-0.36;100.00;100885.88;10158835;28;20759;-71
2023/01/20 02:00:31;;;;;;;29.52;26.73;;;;;;;-0.39;100.00;100880.97;10152982;28;20046;-71
2023/01/20 02:05:29;;;;;;;30.67;27.42;;;;;;;-0.39;100.00;100889.03;10172321;28;20048;-71
2023/01/20 02:10:26;;;;;;;41.55;32.30;;;;;;;-0.46;100.00;100896.44;10119209;28;20070;-71
2023/01/20 02:15:32;;;;;;;30.38;27.48;;;;;;;-0.47;100.00;100906.34;10155775;28;20058;-71
2023/01/20 02:21:17;;;;;;;34.70;29.65;;;;;;;-0.47;100.00;100918.97;10156359;28;20096;-71
2023/01/20 02:26:38;;;;;;;31.55;28.27;;;;;;;-0.44;100.00;100915.81;10180892;28;20053;-71
2023/01/20 02:31:49;;;;;;;34.42;30.83;;;;;;;-0.45;100.00;100930.28;10156818;28;20064;-71
2023/01/20 02:37:17;;;;;;;32.47;27.95;;;;;;;-0.44;100.00;100932.75;10192110;28;20088;-71
2023/01/20 02:42:21;;;;;;;38.22;32.28;;;;;;;-0.44;100.00;100948.06;10135711;28;20053;-71
2023/01/20 02:47:31;;;;;;;35.25;31.55;;;;;;;-0.46;100.00;100953.66;10185024;28;20054;-71
2023/01/20 02:52:35;;;;;;;34.65;30.92;;;;;;;-0.48;100.00;100957.63;10144965;28;20054;-71
2023/01/20 02:57:39;;;;;;;43.13;33.47;;;;;;;-0.52;100.00;100957.28;10188824;28;20687;-71
2023/01/20 03:02:37;;;;;;;36.97;32.97;;;;;;;-0.52;100.00;100957.28;10121189;28;20043;-71
2023/01/20 03:07:36;;;;;;;38.70;34.67;;;;;;;-0.50;100.00;100959.75;10165378;28;20081;-71
2023/01/20 03:12:45;;;;;;;45.25;35.15;;;;;;;-0.54;100.00;100969.31;10155241;28;20082;-71
2023/01/20 03:17:42;;;;;;;39.60;35.30;;;;;;;-0.56;100.00;100977.59;10145035;28;20074;-71
2023/01/20 03:22:38;;;;;;;49.30;35.88;;;;;;;-0.64;100.00;100981.47;10115949;28;20047;-71
2023/01/20 03:27:34;;;;;;;39.83;35.45;;;;;;;-0.66;100.00;100972.84;10153779;28;20059;-71
2023/01/20 03:32:31;;;;;;;45.75;38.08;;;;;;;-0.65;100.00;100985.25;10115800;28;20078;-71
2023/01/20 03:37:28;;;;;;;43.25;34.22;;;;;;;-0.68;100.00;100983.00;10161875;28;20157;-71
2023/01/20 03:42:32;;;;;;;45.67;38.47;;;;;;;-0.67;100.00;100987.34;10155105;28;20046;-71
2023/01/20 03:47:43;;;;;;;56.85;39.38;;;;;;;-0.66;100.00;100994.31;10139980;28;20077;-71
2023/01/20 03:52:59;;;;;;;47.42;36.25;;;;;;;-0.65;100.00;101004.03;10115153;28;20129;-71
2023/01/20 03:58:04;;;;;;;51.05;38.53;;;;;;;-0.61;100.00;101011.63;10114784;28;20046;-71
2023/01/20 04:03:06;;;;;;;45.38;35.83;;;;;;;-0.62;100.00;101010.00;10114797;28;20135;-71
2023/01/20 04:08:06;;;;;;;41.80;32.27;;;;;;;-0.69;100.00;101016.28;10131736;28;20192;-71
2023/01/20 04:13:03;;;;;;;45.35;35.47;;;;;;;-0.75;100.00;101027.16;10135441;28;20070;-71
2023/01/20 04:18:14;;;;;;;49.33;36.13;;;;;;;-0.71;100.00;101034.50;10148409;28;20042;-71
2023/01/20 04:23:24;;;;;;;53.30;36.25;;;;;;;-0.67;100.00;101030.31;10154813;28;20047;-71
2023/01/20 04:28:20;;;;;;;56.50;36.85;;;;;;;-0.65;100.00;101044.31;10156421;28;20046;-71
2023/01/20 04:33:17;;;;;;;50.47;34.25;;;;;;;-0.66;100.00;101058.78;10150215;28;20071;-71
2023/01/20 04:38:14;;;;;;;44.10;30.63;;;;;;;-0.72;100.00;101065.09;10151225;28;20077;-71
2023/01/20 04:43:11;;;;;;;45.05;32.58;;;;;;;-0.69;100.00;101072.69;10153042;28;20137;-71
2023/01/20 04:48:08;;;;;;;47.67;33.25;;;;;;;-0.60;100.00;101072.31;10113344;28;20278;-71
2023/01/20 04:53:05;;;;;;;50.75;35.00;;;;;;;-0.56;100.00;101078.88;10117362;28;20133;-71
2023/01/20 04:58:01;;;;;;;44.08;32.45;;;;;;;-0.52;100.00;101085.41;10155411;28;20054;-71
2023/01/20 05:02:58;;;;;;;46.03;32.38;;;;;;;-0.58;100.00;101080.97;10137199;28;20429;-71
2023/01/20 05:07:55;;;;;;;47.03;32.67;;;;;;;-0.53;100.00;101091.84;10191181;28;20050;-71
2023/01/20 05:12:52;;;;;;;45.20;32.30;;;;;;;-0.65;100.00;101095.34;10160113;28;20444;-71
2023/01/20 05:17:48;;;;;;;45.00;31.40;;;;;;;-0.57;100.00;101104.09;10166921;28;20133;-71
2023/01/20 05:22:46;;;;;;;42.50;31.23;;;;;;;-0.50;100.00;101110.16;10113349;28;20509;-71
2023/01/20 05:27:43;;;;;;;49.42;33.90;;;;;;;-0.48;100.00;101113.44;10171856;28;20049;-71
2023/01/20 05:32:40;;;;;;;45.70;32.28;;;;;;;-0.42;100.00;101123.22;10120251;28;20051;-71
2023/01/20 05:37:36;;;;;;;39.58;29.95;;;;;;;-0.45;100.00;101123.72;10143879;28;20138;-71
2023/01/20 05:42:33;;;;;;;45.58;30.75;;;;;;;-0.53;100.00;101132.13;10120240;28;20088;-71
2023/01/20 05:47:29;;;;;;;40.42;29.67;;;;;;;-0.45;100.00;101134.44;10173649;28;20461;-71
2023/01/20 05:52:26;;;;;;;44.60;30.75;;;;;;;-0.46;100.00;101138.22;10149405;28;20079;-71
2023/01/20 05:57:24;;;;;;;42.28;29.77;;;;;;;-0.48;100.00;101151.06;10157905;28;20053;-71
2023/01/20 06:02:20;;;;;;;41.67;29.88;;;;;;;-0.44;100.00;101152.22;10140887;28;20150;-71
2023/01/20 06:07:16;;;;;;;42.17;32.03;;;;;;;-0.44;100.00;101162.97;10186761;28;20108;-71
2023/01/20 06:12:13;;;;;;;47.25;32.75;;;;;;;-0.30;100.00;101172.44;10159105;28;20050;-71
2023/01/20 06:17:09;;;;;;;43.30;30.00;;;;;;;-0.37;100.00;101185.16;10191213;28;20046;-71
2023/01/20 06:22:07;;;;;;;37.47;28.05;;;;;;;-0.42;100.00;101203.81;10161177;28;20054;-71
2023/01/20 06:27:03;;;;;;;41.65;28.55;;;;;;;-0.41;100.00;101210.03;10189512;28;20157;-72
2023/01/20 06:31:59;;;;;;;39.75;30.33;;;;;;;-0.43;100.00;101212.94;10140306;28;20051;-72
2023/01/20 06:36:57;;;;;;;44.17;30.58;;;;;;;-0.38;100.00;101220.31;10180292;28;20065;-72
2023/01/20 06:41:57;;;;;;;39.67;29.13;;;;;;;-0.35;100.00;101228.72;10119126;28;20478;-71
2023/01/20 06:46:56;;;;;;;39.88;28.63;;;;;;;-0.34;100.00;101235.75;10161021;28;20051;-71
2023/01/20 06:51:53;;;;;;;46.08;30.00;;;;;;;-0.35;100.00;101230.59;10117248;28;20047;-71
2023/01/20 06:56:49;;;;;;;47.90;30.90;;;;;;;-0.34;100.00;101243.81;10142503;28;20051;-71
2023/01/20 07:01:45;;;;;;;38.85;28.73;;;;;;;-0.37;100.00;101255.03;10119747;28;20085;-72
2023/01/20 07:06:42;;;;;;;49.58;32.10;;;;;;;-0.45;100.00;101269.59;10158975;28;20055;-72
2023/01/20 07:11:39;;;;;;;44.75;31.67;;;;;;;-0.34;100.00;101284.09;10156317;28;20053;-72
2023/01/20 07:16:36;;;;;;;46.30;33.17;;;;;;;-0.26;100.00;101283.75;10154449;28;20069;-72
2023/01/20 07:21:32;;;;;;;41.28;31.42;;;;;;;-0.27;100.00;101281.31;10155803;28;20046;-71
2023/01/20 07:26:29;;;;;;;41.50;31.30;;;;;;;-0.16;100.00;101298.50;10139401;28;20049;-71
2023/01/20 07:31:27;;;;;;;44.03;28.45;;;;;;;-0.26;100.00;101299.88;10116104;28;20055;-72
2023/01/20 07:36:24;;;;;;;37.00;27.52;;;;;;;-0.24;100.00;101303.16;10169640;28;20061;-71
2023/01/20 07:41:21;;;;;;;41.15;26.38;;;;;;;-0.20;100.00;101316.16;10185261;28;20080;-71
2023/01/20 07:46:18;;;;;;;42.88;27.63;;;;;;;-0.19;100.00;101325.84;10147467;28;20050;-71
2023/01/20 07:51:15;;;;;;;45.72;29.55;;;;;;;-0.08;100.00;101333.09;10153095;28;20050;-72
2023/01/20 07:56:18;;;;;;;42.08;29.27;;;;;;;-0.03;100.00;101352.03;10178745;28;20160;-72
2023/01/20 08:01:18;;;;;;;68.85;31.08;;;;;;;-0.07;100.00;101358.94;10162417;28;20502;-71
2023/01/20 08:06:17;;;;;;;36.80;25.83;;;;;;;-0.13;100.00;101362.56;10166248;28;20472;-71
2023/01/20 08:11:16;;;;;;;41.38;27.83;;;;;;;-0.04;100.00;101372.75;10161863;28;20053;-73
2023/01/20 08:16:15;;;;;;;40.03;26.45;;;;;;;0.06;100.00;101380.22;10179156;28;20077;-71
2023/01/20 08:21:26;;;;;;;41.78;25.95;;;;;;;0.06;100.00;101393.69;10157730;28;20054;-72
2023/01/20 08:26:24;;;;;;;45.97;27.08;;;;;;;0.16;100.00;101393.94;10153220;28;20441;-71
2023/01/20 08:31:22;;;;;;;34.15;25.40;;;;;;;0.23;100.00;101396.50;10119855;28;20047;-72
2023/01/20 08:36:22;;;;;;;33.70;24.65;;;;;;;0.26;100.00;101403.31;10166032;28;20129;-72
2023/01/20 08:41:25;;;;;;;29.85;22.13;;;;;;;0.23;100.00;101404.56;10118803;28;20043;-72
2023/01/20 08:46:22;;;;;;;38.35;25.52;;;;;;;0.30;100.00;101404.47;10144416;28;20082;-71
2023/01/20 08:51:30;;;;;;;36.20;23.20;;;;;;;0.31;100.00;101416.88;10128599;28;20043;-71
2023/01/20 08:56:27;;;;;;;32.75;22.70;;;;;;;0.23;100.00;101422.59;10140809;28;20046;-72
2023/01/20 09:01:26;;;;;;;29.73;20.88;;;;;;;0.18;100.00;101432.16;10153262;28;20060;-72
2023/01/20 09:06:23;;;;;;;27.95;20.70;;;;;;;0.28;100.00;101434.31;10180756;28;20045;-72
2023/01/20 09:11:23;;;;;;;35.15;22.30;;;;;;;0.38;100.00;101441.81;10181939;28;20070;-72
2023/01/20 09:16:20;;;;;;;29.58;20.67;;;;;;;0.39;100.00;101448.81;10175062;28;20461;-71
2023/01/20 09:21:17;;;;;;;29.40;20.65;;;;;;;0.44;100.00;101454.31;10190988;28;20047;-71
2023/01/20 09:26:13;;;;;;;30.98;20.70;;;;;;;0.48;100.00;101455.50;10159832;28;20107;-72
2023/01/20 09:31:28;;;;;;;30.70;20.85;;;;;;;0.40;100.00;101472.00;10152000;28;20071;-71
2023/01/20 09:36:28;;;;;;;35.78;23.38;;;;;;;0.44;100.00;101475.81;10159368;28;20039;-71
2023/01/20 09:47:18;;;;;;;37.08;22.23;;;;;;;0.70;100.00;101487.25;10169783;28;20523;-72
2023/01/20 09:57:47;;;;;;;34.20;23.20;;;;;;;0.89;100.00;101504.91;10152234;28;20466;-71
2023/01/20 10:02:50;;;;;;;29.50;19.55;;;;;;;1.01;100.00;101505.72;10119526;28;20053;-71
2023/01/20 10:07:57;;;;;;;34.70;22.15;;;;;;;0.92;100.00;101501.75;10166269;28;20125;-71
2023/01/20 10:13:05;;;;;;;35.75;24.10;;;;;;;0.96;100.00;101521.78;10156485;28;20050;-71
2023/01/20 10:18:08;;;;;;;36.55;23.90;;;;;;;1.00;100.00;101522.94;10117717;28;20051;-72
2023/01/20 10:23:12;;;;;;;35.72;22.58;;;;;;;1.11;100.00;101517.78;10118804;28;20050;-72
2023/01/20 10:28:25;;;;;;;31.85;18.27;;;;;;;1.41;100.00;101512.25;10197483;28;20046;-72
2023/01/20 10:33:30;;;;;;;;;;;;;;;1.66;100.00;101503.88;10145244;28;20476;-72
2023/01/20 10:38:48;;;;;;;31.90;15.90;;;;;;;1.68;100.00;101502.56;10172006;28;19929;-72
2023/01/20 10:43:46;;;;;;;26.48;15.80;;;;;;;2.24;100.00;101505.50;10182259;28;20049;-71
2023/01/20 10:49:10;;;;;;;27.25;17.45;;;;;;;2.41;100.00;101504.72;10174879;28;20523;-71
2023/01/20 10:54:21;;;;;;;31.50;18.05;;;;;;;2.39;100.00;101506.84;10134560;28;20046;-72
2023/01/20 10:59:36;;;;;;;28.88;17.30;;;;;;;2.88;100.00;101520.63;10145117;28;20074;-71
2023/01/20 11:04:34;;;;;;;27.02;17.63;;;;;;;2.71;100.00;101523.31;10141145;28;20405;-72
2023/01/20 11:09:33;;;;;;;26.13;16.52;;;;;;;2.67;100.00;101525.69;10136908;28;20101;-71
2023/01/20 11:14:29;;;;;;;26.55;16.52;;;;;;;2.53;100.00;101529.78;10134296;28;20050;-72
2023/01/20 11:19:26;;;;;;;25.98;15.93;;;;;;;2.70;100.00;101530.59;10141950;28;20038;-72
2023/01/20 11:24:33;;;;;;;29.10;16.90;;;;;;;2.86;100.00;101538.94;10159056;28;20056;-71
2023/01/20 11:29:38;;;;;;;26.70;16.70;;;;;;;2.71;100.00;101537.63;10195028;28;20130;-72
2023/01/20 11:34:36;;;;;;;23.33;16.40;;;;;;;2.38;100.00;101543.81;10160280;28;20137;-71
2023/01/20 11:39:42;;;;;;;26.58;16.77;;;;;;;2.55;100.00;101549.22;10175958;28;20070;-71
2023/01/20 11:44:47;;;;;;;24.05;17.60;;;;;;;3.09;100.00;101548.75;10141235;28;20057;-71
2023/01/20 11:49:43;;;;;;;25.33;16.50;;;;;;;3.37;100.00;101545.13;10145949;28;20051;-71
2023/01/20 11:54:40;;;;;;;23.98;15.60;;;;;;;3.89;100.00;101547.38;10141209;28;20057;-72
2023/01/20 11:59:48;;;;;;;24.10;15.75;;;;;;;4.09;100.00;101546.00;10137911;28;20428;-71
2023/01/20 12:05:02;;;;;;;24.30;15.68;;;;;;;3.69;100.00;101552.53;10166411;28;20050;-72
2023/01/20 12:10:27;;;;;;;21.15;15.23;;;;;;;3.56;100.00;101564.56;10193927;28;20145;-72
2023/01/20 12:15:31;;;;;;;21.90;15.02;;;;;;;4.21;100.00;101571.03;10207304;28;20049;-72
2023/01/20 12:20:54;;;;;;;21.25;14.63;;;;;;;4.19;100.00;101582.09;10173976;28;20054;-72
2023/01/20 12:25:58;;;;;;;22.50;15.05;;;;;;;4.12;100.00;101581.47;10159673;28;20058;-72
2023/01/20 12:31:03;;;;;;;19.33;13.55;;;;;;;4.95;100.00;101575.78;10137195;28;20050;-71
2023/01/20 12:36:09;;;;;;;21.25;14.23;;;;;;;5.04;100.00;101589.69;10141998;28;20042;-72
2023/01/20 12:41:23;;;;;;;22.40;15.75;;;;;;;5.49;100.00;101582.94;10148898;28;20050;-71
2023/01/20 12:46:28;;;;;;;22.38;15.27;;;;;;;5.33;100.00;101586.63;10151488;28;20069;-72
2023/01/20 12:51:39;;;;;;;23.05;14.38;;;;;;;5.15;100.00;101601.41;10113440;28;20054;-71
2023/01/20 12:56:55;;;;;;;23.20;15.10;;;;;;;4.30;100.00;101612.81;10160104;28;20049;-72
2023/01/20 13:02:25;;;;;;;21.98;15.07;;;;;;;3.57;100.00;101615.69;10113819;28;20047;-71
2023/01/20 13:07:40;;;;;;;23.65;16.80;;;;;;;3.47;100.00;101626.34;10133844;28;20046;-71
2023/01/20 13:12:39;;;;;;;20.77;15.13;;;;;;;3.12;100.00;101635.53;10128618;28;20051;-71
2023/01/20 13:18:01;;;;;;;21.10;14.73;;;;;;;3.21;100.00;101637.84;10115636;28;20497;-71
2023/01/20 13:23:03;;;;;;;25.70;15.55;;;;;;;4.24;100.00;101640.09;10113026;28;20429;-72
2023/01/20 13:27:59;;;;;;;20.70;14.90;;;;;;;4.69;100.00;101634.38;10112790;28;20043;-72
2023/01/20 13:33:04;;;;;;;22.83;15.32;;;;;;;4.69;100.00;101653.31;10141666;28;20054;-71
2023/01/20 13:38:12;;;;;;;21.92;14.20;;;;;;;4.77;100.00;101650.13;10112362;28;20562;-72
2023/01/20 13:43:33;;;;;;;26.80;16.00;;;;;;;4.87;100.00;101659.44;10114790;28;20085;-72
2023/01/20 13:48:32;;;;;;;22.75;14.70;;;;;;;5.14;100.00;101662.13;10173026;28;20078;-72
2023/01/20 13:53:28;;;;;;;19.85;13.27;;;;;;;5.51;100.00;101670.28;10125201;28;20046;-72
2023/01/20 13:58:32;;;;;;;19.88;14.52;;;;;;;6.07;100.00;101678.81;10146844;28;20126;-71
2023/01/20 14:03:39;;;;;;;19.40;13.13;;;;;;;5.48;100.00;101689.81;10151238;28;20061;-71
2023/01/20 14:08:42;;;;;;;25.88;16.20;;;;;;;5.62;100.00;101703.75;10153485;28;20042;-72
2023/01/20 14:14:00;;;;;;;22.38;14.35;;;;;;;5.44;100.00;101707.66;10160666;28;20068;-72
2023/01/20 14:18:59;;;;;;;19.00;13.70;;;;;;;5.38;100.00;101719.53;10118534;28;20394;-72
2023/01/20 14:23:56;;;;;;;22.98;15.80;;;;;;;5.07;100.00;101724.69;10131024;28;20128;-72
2023/01/20 14:28:58;;;;;;;20.58;13.50;;;;;;;5.01;100.00;101736.56;10157870;28;20500;-71
2023/01/20 14:34:16;;;;;;;21.02;14.43;;;;;;;4.21;100.00;101746.97;10143494;28;20129;-72
2023/01/20 14:39:31;;;;;;;24.08;15.23;;;;;;;3.54;100.00;101761.38;10155950;28;20214;-71
2023/01/20 14:44:33;;;;;;;22.55;15.73;;;;;;;3.79;100.00;101763.69;10140499;28;20049;-71
2023/01/20 14:49:34;;;;;;;24.88;15.48;;;;;;;3.33;100.00;101776.44;10167720;28;20054;-71
2023/01/20 14:54:36;;;;;;;23.25;15.75;;;;;;;3.19;100.00;101788.63;10160343;28;20471;-71
2023/01/20 14:59:33;;;;;;;26.60;15.07;;;;;;;3.07;100.00;101799.47;10136796;28;20049;-71
2023/01/20 15:04:36;;;;;;;25.45;15.85;;;;;;;3.04;100.00;101806.19;10140359;28;20050;-71
2023/01/20 15:09:33;;;;;;;23.75;17.83;;;;;;;3.10;100.00;101821.41;10145782;28;20101;-70
2023/01/20 15:14:30;;;;;;;30.02;17.83;;;;;;;3.27;100.00;101828.75;10132696;28;20053;-71
2023/01/20 15:19:32;;;;;;;24.25;15.15;;;;;;;3.10;100.00;101848.44;10116081;28;20047;-70
2023/01/20 15:24:31;;;;;;;25.00;16.85;;;;;;;2.99;100.00;101857.41;10138938;28;20050;-71
2023/01/20 15:29:31;;;;;;;28.15;16.40;;;;;;;2.78;100.00;101860.75;10195146;28;20042;-71
2023/01/20 15:34:28;;;;;;;23.45;16.58;;;;;;;2.92;100.00;101867.53;10173993;28;20081;-70
2023/01/20 15:39:29;;;;;;;26.17;16.60;;;;;;;2.73;100.00;101880.38;10194725;28;20614;-70
2023/01/20 15:44:25;;;;;;;19.30;14.32;;;;;;;2.85;100.00;101893.84;10169413;28;20405;-71
2023/01/20 15:49:22;;;;;;;27.23;15.25;;;;;;;2.78;100.00;101898.56;10194141;28;20392;-70
2023/01/20 15:54:18;;;;;;;21.52;15.70;;;;;;;2.69;100.00;101917.00;10143038;28;20093;-70
2023/01/20 15:59:17;;;;;;;29.70;17.27;;;;;;;2.52;100.00;101916.88;10143752;28;20610;-71
2023/01/20 16:04:14;;;;;;;26.25;17.45;;;;;;;2.24;100.00;101931.88;10133643;28;20056;-71
2023/01/20 16:09:24;;;;;;;27.90;19.80;;;;;;;2.16;100.00;101953.81;10166431;28;20043;-70
2023/01/20 16:14:20;;;;;;;36.20;18.55;;;;;;;2.13;100.00;101967.75;10134289;28;20077;-70
2023/01/20 16:19:17;;;;;;;31.77;21.23;;;;;;;2.06;100.00;101973.25;10157757;28;20074;-70
2023/01/20 16:24:13;;;;;;;31.73;20.20;;;;;;;1.81;100.00;101976.09;10133147;28;20050;-71
2023/01/20 16:29:10;;;;;;;30.55;20.83;;;;;;;1.88;100.00;101992.16;10146551;28;20047;-70
2023/01/20 16:34:07;;;;;;;26.25;19.27;;;;;;;2.05;100.00;101997.78;10154945;28;20046;-70
2023/01/20 16:39:03;;;;;;;29.52;21.08;;;;;;;1.80;100.00;102008.69;10152982;28;20564;-70
2023/01/20 16:43:59;;;;;;;30.30;22.88;;;;;;;1.87;100.00;102023.72;10141669;28;20052;-71
2023/01/20 16:49:00;;;;;;;33.75;24.55;;;;;;;1.78;100.00;102024.25;10193101;28;20347;-71
2023/01/20 16:53:58;;;;;;;32.58;23.75;;;;;;;1.73;100.00;102032.22;10134189;28;20046;-71
2023/01/20 16:58:56;;;;;;;32.95;24.52;;;;;;;1.89;100.00;102045.91;10156488;28;20521;-70
2023/01/20 17:03:55;;;;;;;32.40;24.92;;;;;;;1.92;100.00;102062.69;10126936;28;20049;-70
2023/01/20 17:08:53;;;;;;;35.58;27.67;;;;;;;1.96;100.00;102069.28;10137200;28;20122;-70
2023/01/20 17:13:50;;;;;;;41.28;28.38;;;;;;;1.92;100.00;102068.06;10121896;28;20061;-71
2023/01/20 17:18:51;;;;;;;41.03;28.27;;;;;;;1.89;100.00;102086.34;10150776;28;20058;-71
2023/01/20 17:23:56;;;;;;;37.80;28.20;;;;;;;1.88;100.00;102100.06;10158881;28;20127;-70
2023/01/20 17:29:01;;;;;;;36.85;28.67;;;;;;;1.84;100.00;102105.09;10200331;28;20117;-70
2023/01/20 17:33:57;;;;;;;36.67;28.83;;;;;;;1.85;100.00;102122.09;10164791;28;20077;-70
2023/01/20 17:38:54;;;;;;;37.78;30.50;;;;;;;1.89;100.00;102118.72;10190645;28;20121;-70
2023/01/20 17:43:50;;;;;;;37.15;28.35;;;;;;;1.86;100.00;102132.66;10132535;28;20050;-70
2023/01/20 17:48:48;;;;;;;38.28;32.50;;;;;;;1.86;100.00;102143.47;10155171;28;20050;-70
2023/01/20 17:53:45;;;;;;;41.72;32.45;;;;;;;1.85;100.00;102152.59;10130627;28;20042;-70
2023/01/20 17:58:43;;;;;;;47.28;34.53;;;;;;;1.93;100.00;102161.44;10160557;28;20046;-70
2023/01/20 18:03:41;;;;;;;48.90;33.20;;;;;;;1.80;100.00;102167.81;10163865;28;20070;-69
2023/01/20 18:08:39;;;;;;;48.50;33.63;;;;;;;1.74;100.00;102169.53;10140299;28;20660;-70
2023/01/20 18:13:36;;;;;;;48.70;32.97;;;;;;;1.67;100.00;102171.44;10127619;28;20077;-70
2023/01/20 18:18:32;;;;;;;47.40;34.92;;;;;;;1.73;100.00;102183.22;10135972;28;20066;-70
2023/01/20 18:23:29;;;;;;;43.53;32.33;;;;;;;1.75;100.00;102189.22;10125746;28;20052;-70
2023/01/20 18:28:25;;;;;;;55.80;35.47;;;;;;;1.67;100.00;102201.09;10156931;28;20078;-72
2023/01/20 18:33:23;;;;;;;49.20;35.95;;;;;;;1.68;100.00;102200.06;10150569;28;20078;-70
2023/01/20 18:38:19;;;;;;;51.00;35.13;;;;;;;1.71;100.00;102202.31;10176512;28;20121;-70
2023/01/20 18:43:15;;;;;;;50.22;33.78;;;;;;;1.66;100.00;102216.47;10136104;28;20493;-70
2023/01/20 18:48:12;;;;;;;53.08;36.88;;;;;;;1.68;100.00;102229.72;10197112;28;20500;-70
2023/01/20 18:53:08;;;;;;;50.13;34.60;;;;;;;1.65;100.00;102230.19;10156873;28;20084;-70
2023/01/20 18:58:07;;;;;;;48.65;35.05;;;;;;;1.56;100.00;102236.91;10194861;28;20535;-70
2023/01/20 19:03:03;;;;;;;49.75;33.75;;;;;;;1.68;100.00;102246.72;10115496;28;20413;-70
2023/01/20 19:08:00;;;;;;;51.63;35.92;;;;;;;1.72;100.00;102247.13;10170367;28;20038;-70
2023/01/20 19:12:56;;;;;;;49.25;32.58;;;;;;;1.74;100.00;102250.44;10156308;28;20050;-70
2023/01/20 19:17:53;;;;;;;52.22;34.22;;;;;;;1.53;100.00;102258.88;10150365;28;20122;-69
2023/01/20 19:22:49;;;;;;;47.17;31.92;;;;;;;1.50;100.00;102270.13;10116972;28;20137;-70
2023/01/20 19:27:45;;;;;;;57.10;34.05;;;;;;;1.70;100.00;102286.97;10129666;28;20449;-71
2023/01/20 19:32:42;;;;;;;47.15;33.53;;;;;;;1.78;100.00;102292.06;10116221;28;20056;-70
2023/01/20 19:37:38;;;;;;;50.08;32.42;;;;;;;1.77;100.00;102295.00;10189723;28;20056;-70
2023/01/20 19:42:35;;;;;;;45.90;32.55;;;;;;;1.71;100.00;102304.78;10190738;28;20531;-70
2023/01/20 19:47:32;;;;;;;51.20;31.83;;;;;;;1.64;100.00;102321.00;10187498;28;20052;-70
2023/01/20 19:52:29;;;;;;;53.15;34.72;;;;;;;1.68;100.00;102321.41;10181176;28;20054;-70
2023/01/20 19:57:26;;;;;;;48.45;32.78;;;;;;;1.80;100.00;102330.44;10185741;28;20496;-70
2023/01/20 20:02:22;;;;;;;45.00;32.13;;;;;;;1.82;100.00;102328.34;10162968;28;20077;-70
2023/01/20 20:07:19;;;;;;;44.88;29.77;;;;;;;1.81;100.00;102336.66;10183460;28;20456;-70
2023/01/20 20:12:15;;;;;;;54.53;31.05;;;;;;;1.57;100.00;102335.59;10126059;28;20126;-70
2023/01/20 20:17:12;;;;;;;51.58;32.58;;;;;;;1.70;100.00;102350.88;10177957;28;20493;-70
2023/01/20 20:22:08;;;;;;;52.28;36.08;;;;;;;1.55;100.00;102353.84;10153634;28;20052;-70
2023/01/20 20:27:05;;;;;;;48.38;30.52;;;;;;;1.54;100.00;102363.00;10131585;28;20077;-70
2023/01/20 20:32:01;;;;;;;46.47;32.13;;;;;;;1.73;100.00;102362.03;10114335;28;20050;-70
2023/01/20 20:36:58;;;;;;;47.03;32.67;;;;;;;1.66;100.00;102374.72;10116515;28;20051;-70
2023/01/20 20:41:55;;;;;;;46.45;32.50;;;;;;;1.41;100.00;102372.78;10114380;28;20529;-70
2023/01/20 20:46:51;;;;;;;53.03;33.80;;;;;;;1.43;100.00;102381.50;10175232;28;20097;-70
2023/01/20 20:51:48;;;;;;;43.78;31.85;;;;;;;1.46;100.00;102399.94;10193222;28;20050;-70
2023/01/20 20:56:44;;;;;;;52.20;34.92;;;;;;;1.45;100.00;102402.84;10181091;28;20050;-70
2023/01/20 21:01:41;;;;;;;44.53;31.38;;;;;;;1.59;100.00;102403.59;10200112;28;20129;-70
2023/01/20 21:06:37;;;;;;;49.60;31.50;;;;;;;1.63;100.00;102415.63;10187982;28;20112;-70
2023/01/20 21:11:35;;;;;;;48.63;33.90;;;;;;;1.74;100.00;102423.03;10200163;28;20523;-70
2023/01/20 21:16:34;;;;;;;46.67;31.83;;;;;;;1.67;100.00;102417.66;10187101;28;20045;-70
2023/01/20 21:21:30;;;;;;;39.35;28.77;;;;;;;1.73;100.00;102421.34;10198672;28;20046;-70
2023/01/20 21:26:27;;;;;;;41.10;29.27;;;;;;;1.63;100.00;102427.22;10155310;28;20142;-70
2023/01/20 21:31:26;;;;;;;48.00;29.33;;;;;;;1.49;100.00;102427.53;10155836;28;20541;-70
2023/01/20 21:36:24;;;;;;;48.03;30.80;;;;;;;1.41;100.00;102440.19;10173687;28;20042;-70
2023/01/20 21:41:20;;;;;;;53.15;32.00;;;;;;;1.53;100.00;102447.59;10170323;28;20043;-70
2023/01/20 21:46:17;;;;;;;46.35;32.83;;;;;;;1.50;100.00;102454.25;10170197;28;20054;-70
2023/01/20 21:56:29;;;;;;;41.28;28.60;;;;;;;1.64;100.00;102466.63;10149659;28;20043;-70
2023/01/20 22:01:25;;;;;;;40.13;29.20;;;;;;;1.52;100.00;102467.53;10119711;28;20051;-70
2023/01/20 22:06:22;;;;;;;39.80;28.52;;;;;;;1.36;100.00;102475.03;10132722;28;20493;-70
2023/01/20 22:11:18;;;;;;;44.67;29.42;;;;;;;1.49;100.00;102478.75;10119333;28;20130;-70
2023/01/20 22:16:15;;;;;;;52.33;32.47;;;;;;;1.44;100.00;102482.91;10171101;28;20049;-70
2023/01/20 22:21:11;;;;;;;46.13;31.92;;;;;;;1.37;100.00;102482.09;10198859;28;20046;-70
2023/01/20 22:26:08;;;;;;;51.45;34.03;;;;;;;1.40;100.00;102481.66;10180513;28;20050;-70
2023/01/20 22:31:11;;;;;;;48.22;31.27;;;;;;;1.30;100.00;102481.28;10195783;28;20061;-70
2023/01/20 22:36:08;;;;;;;45.28;31.67;;;;;;;1.35;100.00;102494.13;10168088;28;20668;-70
2023/01/20 22:41:06;;;;;;;49.55;33.40;;;;;;;1.36;100.00;102501.16;10177070;28;20424;-70